Time;durP1;ratioP1;P1;durP2;ratioP2;P2;SDS_P1;SDS_P2;PMS_P1;PMS_P2;Temp;Humidity;BMP_temperature;BMP_pressure;BME280_temperature;BME280_humidity;BME280_pressure;Samples;Min_cycle;Max_cycle;Signal;HPM_P1;HPM_P2
2023/06/16 00:02:12;;;;;;;33.78;13.45;;;;;;;19.19;85.90;99629.41;1739935;82;21347;-79
2023/06/16 00:05:17;;;;;;;33.40;13.58;;;;;;;19.04;86.20;99622.50;1741289;82;21318;-80
2023/06/16 00:08:23;;;;;;;36.50;14.05;;;;;;;19.03;86.31;99618.60;1741435;82;21833;-81
2023/06/16 00:11:29;;;;;;;34.05;13.60;;;;;;;18.98;86.61;99616.58;1740197;82;21346;-83
2023/06/16 00:14:35;;;;;;;28.57;13.43;;;;;;;18.91;86.93;99608.94;1741394;82;21323;-81
2023/06/16 00:17:44;;;;;;;24.50;13.38;;;;;;;19.05;86.02;99608.09;1741160;82;21292;-83
2023/06/16 00:20:42;;;;;;;34.18;13.88;;;;;;;18.99;85.97;99618.25;1740635;82;21781;-83
2023/06/16 00:23:42;;;;;;;35.03;14.28;;;;;;;19.07;85.56;99619.24;1740934;81;21880;-82
2023/06/16 00:26:48;;;;;;;25.80;13.88;;;;;;;19.18;84.87;99620.81;1740218;82;21363;-83
2023/06/16 00:29:56;;;;;;;27.10;13.40;;;;;;;18.98;85.15;99613.80;1741338;82;21845;-79
2023/06/16 00:33:03;;;;;;;31.05;13.93;;;;;;;18.89;85.66;99619.45;1740066;82;21908;-80
2023/06/16 00:36:09;;;;;;;32.45;13.25;;;;;;;18.75;86.06;99624.44;1739762;82;21312;-80
2023/06/16 00:39:15;;;;;;;32.78;13.78;;;;;;;18.71;86.44;99622.41;1740002;82;21284;-82
2023/06/16 00:42:22;;;;;;;23.15;13.20;;;;;;;18.78;86.23;99625.89;1739913;82;21323;-83
2023/06/16 00:45:28;;;;;;;31.12;12.35;;;;;;;18.80;85.49;99629.23;1740868;82;21912;-83
2023/06/16 00:48:32;;;;;;;22.85;12.15;;;;;;;18.70;85.80;99630.42;1741407;82;21257;-84
2023/06/16 00:51:39;;;;;;;26.70;11.68;;;;;;;18.69;85.76;99631.52;1740381;82;21280;-80
2023/06/16 00:54:46;;;;;;;26.87;12.37;;;;;;;18.56;86.31;99627.89;1741142;82;21279;-79
2023/06/16 00:57:53;;;;;;;28.67;13.13;;;;;;;18.74;85.62;99626.08;1741135;82;21291;-83
2023/06/16 01:00:59;;;;;;;21.45;11.55;;;;;;;18.38;87.13;99628.05;1732692;82;21303;-83
2023/06/16 01:04:05;;;;;;;25.05;11.75;;;;;;;18.24;88.30;99630.79;1741190;82;21292;-79
2023/06/16 01:07:31;;;;;;;34.63;11.90;;;;;;;18.18;88.50;99629.00;1740317;82;21284;-82
2023/06/16 01:10:59;;;;;;;29.50;11.60;;;;;;;18.30;88.23;99625.66;1741392;82;21307;-78
2023/06/16 01:14:20;;;;;;;23.62;11.35;;;;;;;18.01;89.02;99630.27;1734923;82;21814;-83
2023/06/16 01:17:28;;;;;;;31.30;11.55;;;;;;;18.06;89.15;99624.30;1737998;81;21281;-79
2023/06/16 01:20:44;;;;;;;20.35;10.72;;;;;;;18.02;89.29;99628.66;1741313;82;21307;-82
2023/06/16 01:24:16;;;;;;;26.70;12.05;;;;;;;17.95;89.04;99632.08;1746448;81;21307;-82
2023/06/16 01:27:24;;;;;;;23.45;11.03;;;;;;;17.96;89.34;99632.38;1754684;82;21279;-79
2023/06/16 01:30:32;;;;;;;30.95;11.40;;;;;;;17.94;89.75;99627.63;1754439;82;21784;-82
2023/06/16 01:33:39;;;;;;;25.55;10.88;;;;;;;18.01;89.03;99629.72;1753152;82;21300;-79
2023/06/16 01:36:49;;;;;;;30.35;10.93;;;;;;;17.88;89.11;99635.52;1753282;82;21318;-80
2023/06/16 01:39:53;;;;;;;24.65;10.75;;;;;;;17.89;89.33;99637.20;1754676;82;21272;-82
2023/06/16 01:42:59;;;;;;;25.25;10.80;;;;;;;17.87;89.94;99640.19;1754578;82;21291;-82
2023/06/16 01:46:04;;;;;;;25.75;10.82;;;;;;;17.88;89.44;99641.89;1754735;82;21307;-80
2023/06/16 01:49:10;;;;;;;29.57;11.10;;;;;;;17.84;89.70;99632.94;1754673;82;21267;-82
2023/06/16 01:52:15;;;;;;;29.42;10.53;;;;;;;17.83;89.75;99639.01;1755456;82;21641;-83
2023/06/16 01:55:20;;;;;;;24.87;10.53;;;;;;;17.65;90.93;99632.71;1754307;82;21311;-79
2023/06/16 01:58:27;;;;;;;28.65;12.00;;;;;;;17.47;91.60;99638.62;1755777;82;21315;-80
2023/06/16 02:01:38;;;;;;;23.07;11.33;;;;;;;17.48;92.52;99632.55;1754607;82;21312;-78
2023/06/16 02:04:44;;;;;;;28.83;11.68;;;;;;;17.82;91.89;99637.30;1754415;82;21832;-80
2023/06/16 02:07:50;;;;;;;29.40;11.40;;;;;;;17.97;91.81;99634.59;1754593;82;21887;-83
2023/06/16 02:10:56;;;;;;;22.70;11.05;;;;;;;18.24;90.70;99628.02;1753970;82;21318;-80
2023/06/16 02:14:01;;;;;;;30.57;11.15;;;;;;;18.38;90.49;99634.98;1754630;82;21302;-79
2023/06/16 02:17:12;;;;;;;24.30;10.88;;;;;;;18.62;89.81;99632.98;1753186;82;21302;-82
2023/06/16 02:20:18;;;;;;;30.82;11.57;;;;;;;19.00;88.46;99636.55;1753314;82;21295;-82
2023/06/16 02:23:18;;;;;;;36.68;11.43;;;;;;;19.66;85.45;99628.05;1753528;82;21297;-83
2023/06/16 02:26:18;;;;;;;25.45;10.32;;;;;;;19.65;84.24;99630.55;1738956;82;21296;-83
2023/06/16 02:29:25;;;;;;;30.23;10.53;;;;;;;20.00;83.02;99636.94;1741249;82;21264;-81
2023/06/16 02:32:30;;;;;;;22.40;10.15;;;;;;;20.40;81.01;99635.27;1741159;82;21285;-83
2023/06/16 02:35:36;;;;;;;23.38;9.75;;;;;;;20.50;80.18;99637.38;1705595;83;21359;-80
2023/06/16 02:38:42;;;;;;;20.30;9.23;;;;;;;20.86;78.34;99637.28;1740872;82;21893;-79
2023/06/16 02:41:49;;;;;;;21.05;8.55;;;;;;;21.19;76.34;99632.92;1740115;82;21979;-83
2023/06/16 02:44:56;;;;;;;27.10;9.38;;;;;;;21.37;75.28;99642.03;1741323;82;21292;-83
2023/06/16 02:48:02;;;;;;;16.40;8.58;;;;;;;21.72;73.38;99642.06;1741371;82;21833;-82
2023/06/16 02:51:09;;;;;;;17.17;8.50;;;;;;;21.98;71.60;99646.73;1739928;82;21343;-81
2023/06/16 02:54:15;;;;;;;21.62;9.05;;;;;;;22.12;71.04;99647.14;1740199;82;21311;-83
2023/06/16 02:57:23;;;;;;;20.50;7.80;;;;;;;22.22;70.59;99648.59;1741202;82;21276;-83
2023/06/16 03:00:28;;;;;;;17.42;7.92;;;;;;;22.52;69.50;99651.26;1741151;82;21344;-80
2023/06/16 03:03:36;;;;;;;23.27;7.83;;;;;;;22.87;68.00;99655.61;1740673;82;21307;-83
2023/06/16 03:06:46;;;;;;;18.20;7.30;;;;;;;23.15;66.50;99652.11;1740256;82;21315;-80
2023/06/16 03:09:48;;;;;;;26.12;8.63;;;;;;;23.08;66.69;99651.52;1740441;82;21304;-80
2023/06/16 03:12:55;;;;;;;13.65;6.85;;;;;;;23.18;65.75;99650.98;1741191;82;21289;-84
2023/06/16 03:16:02;;;;;;;17.82;7.70;;;;;;;23.50;64.42;99653.28;1740916;82;21287;-80
2023/06/16 03:19:08;;;;;;;24.07;8.35;;;;;;;23.28;65.22;99656.30;1741341;82;21336;-83
2023/06/16 03:22:15;;;;;;;20.85;7.10;;;;;;;23.27;65.60;99661.61;1741640;81;21749;-84
2023/06/16 03:25:21;;;;;;;22.48;7.97;;;;;;;23.37;65.04;99656.05;1742341;82;21863;-84
2023/06/16 03:28:27;;;;;;;26.52;7.58;;;;;;;23.23;65.37;99657.69;1754787;82;21275;-81
2023/06/16 03:31:34;;;;;;;18.80;6.35;;;;;;;23.38;65.34;99654.39;1753665;82;21310;-84
2023/06/16 03:34:40;;;;;;;16.75;6.37;;;;;;;23.33;65.26;99653.52;1753543;82;21322;-84
2023/06/16 03:37:45;;;;;;;13.90;6.30;;;;;;;23.38;65.39;99652.13;1754781;82;21271;-84
2023/06/16 03:40:50;;;;;;;25.12;7.22;;;;;;;23.42;65.33;99646.28;1753635;82;21306;-84
2023/06/16 03:43:56;;;;;;;15.88;6.22;;;;;;;23.42;65.39;99641.53;1754257;82;21310;-84
2023/06/16 03:47:03;;;;;;;16.80;6.58;;;;;;;23.53;65.68;99642.97;1753477;82;21334;-84
2023/06/16 03:50:08;;;;;;;18.02;5.87;;;;;;;23.61;65.20;99644.63;1754775;82;21378;-81
2023/06/16 03:53:14;;;;;;;13.58;5.85;;;;;;;23.59;65.20;99634.86;1754834;82;21267;-81
2023/06/16 03:56:20;;;;;;;16.25;5.87;;;;;;;23.62;65.15;99639.34;1753827;82;21295;-84
2023/06/16 03:59:26;;;;;;;16.12;5.80;;;;;;;23.70;64.53;99637.40;1754696;82;21264;-83
2023/06/16 04:02:32;;;;;;;11.25;5.30;;;;;;;23.73;64.12;99639.38;1754712;82;21279;-83
2023/06/16 04:05:40;;;;;;;13.28;5.28;;;;;;;23.78;64.58;99630.99;1754255;82;21931;-81
2023/06/16 04:08:47;;;;;;;24.00;6.28;;;;;;;23.46;65.53;99624.52;1754773;82;21290;-84
2023/06/16 04:11:53;;;;;;;14.38;5.08;;;;;;;23.34;65.84;99638.48;1753354;82;21314;-81
2023/06/16 04:15:00;;;;;;;11.88;5.33;;;;;;;23.23;66.15;99632.02;1753809;82;21302;-81
2023/06/16 04:18:07;;;;;;;15.43;5.67;;;;;;;23.27;66.83;99628.96;1754726;82;21275;-84
2023/06/16 04:21:13;;;;;;;11.83;4.95;;;;;;;23.25;66.49;99631.20;1754099;82;21299;-84
2023/06/16 04:24:19;;;;;;;17.32;5.70;;;;;;;23.16;66.99;99633.69;1756640;82;21311;-81
2023/06/16 04:27:28;;;;;;;14.28;4.78;;;;;;;23.27;66.17;99630.36;1748075;82;21327;-79
2023/06/16 04:30:36;;;;;;;11.40;4.45;;;;;;;23.48;66.52;99628.45;1741783;82;21339;-82
2023/06/16 04:33:42;;;;;;;15.48;5.42;;;;;;;23.55;66.17;99623.41;1741475;82;21919;-83
2023/06/16 04:36:44;;;;;;;11.90;4.85;;;;;;;23.60;65.73;99629.00;1740210;82;21391;-82
2023/06/16 04:39:43;;;;;;;18.15;4.60;;;;;;;23.61;65.89;99627.03;1741354;82;21292;-83
2023/06/16 04:42:49;;;;;;;13.22;5.00;;;;;;;23.55;65.82;99630.39;1741373;82;21264;-81
2023/06/16 04:45:58;;;;;;;19.17;5.00;;;;;;;23.66;65.07;99632.09;1732294;82;21251;-82
2023/06/16 04:49:04;;;;;;;10.30;4.67;;;;;;;23.75;64.60;99629.58;1741359;82;21276;-82
2023/06/16 04:52:12;;;;;;;13.18;5.10;;;;;;;23.70;65.06;99627.63;1740081;81;21320;-82
2023/06/16 04:55:18;;;;;;;11.53;4.22;;;;;;;23.97;64.61;99639.91;1740692;82;21311;-84
2023/06/16 04:58:23;;;;;;;15.28;5.08;;;;;;;23.82;64.57;99633.51;1741353;82;21264;-85
2023/06/16 05:01:30;;;;;;;11.85;4.85;;;;;;;23.89;64.67;99643.25;1740568;82;21259;-82
2023/06/16 05:04:38;;;;;;;11.40;4.30;;;;;;;23.81;65.00;99633.23;1741463;81;21181;-84
2023/06/16 05:07:44;;;;;;;22.73;4.55;;;;;;;23.90;65.68;99644.09;1741395;82;21323;-82
2023/06/16 05:10:50;;;;;;;9.55;4.17;;;;;;;23.85;65.94;99632.92;1745260;81;21831;-82
2023/06/16 05:13:55;;;;;;;10.35;4.53;;;;;;;23.94;64.57;99633.47;1707946;84;21858;-85
2023/06/16 05:17:01;;;;;;;12.13;4.62;;;;;;;24.14;64.26;99634.03;1755469;81;21295;-81
2023/06/16 05:20:08;;;;;;;9.18;3.92;;;;;;;24.14;65.02;99631.80;1757009;81;21227;-84
2023/06/16 05:23:14;;;;;;;18.48;4.87;;;;;;;24.33;64.32;99632.04;1756979;81;21825;-84
2023/06/16 05:26:21;;;;;;;16.45;4.03;;;;;;;24.48;63.82;99634.81;1759618;81;21885;-82
2023/06/16 05:29:25;;;;;;;11.20;4.22;;;;;;;24.41;62.75;99625.88;1782727;80;21848;-81
2023/06/16 05:32:31;;;;;;;18.20;4.50;;;;;;;24.61;61.62;99628.63;1785640;80;21252;-84
2023/06/16 05:35:37;;;;;;;13.95;4.20;;;;;;;24.58;61.55;99625.55;1785224;80;21235;-81
2023/06/16 05:38:43;;;;;;;14.25;4.53;;;;;;;24.85;60.72;99625.16;1785573;80;21311;-81
2023/06/16 05:41:49;;;;;;;19.57;4.67;;;;;;;25.05;59.36;99634.01;1785689;80;21276;-83
2023/06/16 05:44:56;;;;;;;13.28;4.08;;;;;;;25.00;59.84;99634.87;1785835;80;21252;-84
2023/06/16 05:48:03;;;;;;;13.40;4.15;;;;;;;25.36;58.79;99631.88;1785813;80;21280;-84
2023/06/16 05:51:10;;;;;;;9.80;4.62;;;;;;;25.43;58.44;99627.63;1785051;80;21362;-81
2023/06/16 05:54:15;;;;;;;18.70;4.17;;;;;;;25.29;58.95;99624.38;1785685;80;21280;-84
2023/06/16 05:57:20;;;;;;;8.23;3.50;;;;;;;25.45;57.76;99627.33;1785078;80;21319;-84
2023/06/16 06:00:27;;;;;;;13.55;4.22;;;;;;;25.42;57.10;99630.73;1785499;80;21307;-81
2023/06/16 06:03:35;;;;;;;10.48;4.45;;;;;;;25.62;56.35;99627.77;1785650;80;21295;-84
2023/06/16 06:06:43;;;;;;;18.30;4.30;;;;;;;25.39;57.46;99629.33;1784488;80;21330;-83
2023/06/16 06:09:50;;;;;;;12.28;4.67;;;;;;;25.56;56.30;99617.74;1785670;80;21892;-82
2023/06/16 06:12:56;;;;;;;12.07;4.35;;;;;;;25.64;55.99;99619.06;1785132;80;21328;-82
2023/06/16 06:16:01;;;;;;;;;;;;;;;25.62;53.53;99609.56;1787672;80;21319;-82
2023/06/16 06:19:09;;;;;;;13.85;4.58;;;;;;;25.59;53.87;99614.34;1786067;80;20257;-84
2023/06/16 06:22:16;;;;;;;22.95;4.90;;;;;;;25.54;55.06;99611.58;1785591;80;21280;-82
2023/06/16 06:25:22;;;;;;;14.73;4.22;;;;;;;25.63;55.38;99611.23;1765931;80;21320;-84
2023/06/16 06:28:28;;;;;;;14.55;5.17;;;;;;;25.84;55.98;99611.10;1752936;82;21298;-85
2023/06/16 06:31:36;;;;;;;12.10;5.03;;;;;;;25.84;54.16;99602.70;1753581;82;21311;-84
2023/06/16 06:34:41;;;;;;;10.23;4.45;;;;;;;25.81;55.23;99605.52;1753150;82;21840;-83
2023/06/16 06:37:47;;;;;;;20.45;5.80;;;;;;;25.99;54.18;99606.75;1754815;82;21295;-82
2023/06/16 06:40:54;;;;;;;16.85;5.30;;;;;;;26.00;53.76;99601.41;1741245;80;21303;-82
2023/06/16 06:43:56;;;;;;;26.57;7.62;;;;;;;26.04;53.06;99601.09;1753382;82;21311;-84
2023/06/16 06:47:06;;;;;;;23.47;6.20;;;;;;;26.04;53.54;99608.66;1717405;83;21309;-81
2023/06/16 06:50:13;;;;;;;30.00;6.35;;;;;;;26.17;54.31;99598.16;1718619;83;21926;-82
2023/06/16 06:53:19;;;;;;;17.55;5.58;;;;;;;26.23;53.92;99607.61;1690018;85;21311;-82
2023/06/16 06:56:25;;;;;;;42.10;7.80;;;;;;;26.49;52.19;99615.78;1706386;83;21316;-81
2023/06/16 06:59:31;;;;;;;26.42;6.65;;;;;;;26.63;51.10;99610.26;1719249;83;21337;-83
2023/06/16 07:02:41;;;;;;;16.55;5.50;;;;;;;26.79;51.63;99602.50;1719453;83;21285;-82
2023/06/16 07:05:49;;;;;;;22.65;4.72;;;;;;;27.06;50.35;99608.30;1718971;83;21369;-83
2023/06/16 07:08:54;;;;;;;14.90;4.50;;;;;;;27.16;48.71;99603.97;1717995;83;21238;-82
2023/06/16 07:12:01;;;;;;;10.38;4.00;;;;;;;27.25;48.01;99611.98;1717875;83;21333;-81
2023/06/16 07:15:08;;;;;;;13.18;5.53;;;;;;;27.32;48.42;99613.56;1719342;83;21447;-82
2023/06/16 07:18:14;;;;;;;12.40;4.62;;;;;;;27.24;47.62;99611.72;1718136;83;21210;-81
2023/06/16 07:21:20;;;;;;;18.60;4.78;;;;;;;27.01;48.25;99611.19;1718511;83;21392;-81
2023/06/16 07:24:25;;;;;;;15.98;4.85;;;;;;;27.05;48.54;99607.18;1719245;83;21854;-83
2023/06/16 07:27:32;;;;;;;10.23;4.50;;;;;;;27.07;48.52;99605.76;1727566;83;21314;-81
2023/06/16 07:30:37;;;;;;;13.45;4.58;;;;;;;27.13;48.33;99607.38;1726409;83;21855;-82
2023/06/16 07:33:44;;;;;;;15.23;5.20;;;;;;;27.06;49.14;99604.09;1722337;83;21315;-81
2023/06/16 07:36:52;;;;;;;13.45;4.80;;;;;;;27.06;47.69;99610.28;1721444;83;21354;-80
2023/06/16 07:39:52;;;;;;;22.80;5.62;;;;;;;26.75;48.91;99605.90;1722533;83;21287;-80
2023/06/16 07:42:58;;;;;;;19.70;5.53;;;;;;;26.64;49.51;99611.95;1722986;83;21275;-80
2023/06/16 07:46:05;;;;;;;16.67;5.97;;;;;;;26.54;49.99;99605.91;1722881;83;21330;-82
2023/06/16 07:49:11;;;;;;;13.10;5.50;;;;;;;26.44;50.49;99599.86;1723095;83;21868;-81
2023/06/16 07:52:16;;;;;;;14.07;5.55;;;;;;;26.38;51.08;99610.80;1721619;83;21785;-82
2023/06/16 07:55:22;;;;;;;14.58;5.22;;;;;;;26.37;50.59;99604.94;1722593;83;21314;-80
2023/06/16 07:58:27;;;;;;;13.78;5.35;;;;;;;26.52;50.02;99603.12;1721927;83;21836;-80
2023/06/16 08:01:32;;;;;;;8.65;4.75;;;;;;;26.63;50.55;99599.04;1722206;83;21354;-82
2023/06/16 08:04:37;;;;;;;17.55;5.40;;;;;;;26.80;50.57;99607.80;1722806;83;21282;-80
2023/06/16 08:07:46;;;;;;;20.52;5.22;;;;;;;27.15;50.01;99598.09;1722431;83;21343;-82
2023/06/16 08:10:51;;;;;;;11.63;3.98;;;;;;;27.45;50.05;99617.01;1722418;83;21319;-82
2023/06/16 08:13:58;;;;;;;12.30;4.92;;;;;;;27.35;50.29;99604.54;1723080;83;21304;-81
2023/06/16 08:17:04;;;;;;;17.82;4.42;;;;;;;27.40;49.09;99603.05;1721603;83;21865;-83
2023/06/16 08:20:11;;;;;;;12.07;5.10;;;;;;;27.36;49.20;99611.81;1721503;83;21872;-81
2023/06/16 08:23:17;;;;;;;14.63;5.12;;;;;;;27.28;48.82;99606.88;1722907;83;21279;-82
2023/06/16 08:26:23;;;;;;;11.30;4.05;;;;;;;27.03;49.64;99605.26;1722026;83;21875;-81
2023/06/16 08:29:30;;;;;;;11.97;3.72;;;;;;;27.05;48.39;99601.00;1721573;83;21296;-83
2023/06/16 08:32:36;;;;;;;12.63;3.65;;;;;;;27.04;47.32;99602.14;1722336;83;21323;-81
2023/06/16 08:35:42;;;;;;;14.25;4.08;;;;;;;27.17;46.99;99598.62;1721795;83;21314;-82
2023/06/16 08:38:48;;;;;;;16.62;4.30;;;;;;;27.44;47.44;99597.09;1721515;83;21287;-81
2023/06/16 08:41:53;;;;;;;14.18;5.37;;;;;;;27.57;48.20;99587.03;1721925;83;21299;-83
2023/06/16 08:45:01;;;;;;;15.78;4.55;;;;;;;27.71;47.58;99589.32;1722449;83;21326;-81
2023/06/16 08:48:06;;;;;;;10.30;4.50;;;;;;;27.71;48.48;99590.22;1723051;83;21319;-81
2023/06/16 08:51:16;;;;;;;11.30;3.90;;;;;;;27.52;48.79;99583.74;1722963;83;21299;-82
2023/06/16 08:54:16;;;;;;;;;;;;;;;27.65;47.72;99592.80;1725375;83;21288;-80
2023/06/16 08:57:11;;;;;;;10.93;4.25;;;;;;;27.95;47.04;99588.66;1721691;83;20242;-83
2023/06/16 08:59:57;;;;;;;15.48;4.90;;;;;;;27.79;46.95;99590.64;1721832;83;21880;-81
2023/06/16 09:02:55;;;;;;;14.58;4.55;;;;;;;27.69;46.32;99584.02;1723255;83;21200;-81
2023/06/16 09:06:00;;;;;;;21.15;4.70;;;;;;;27.65;45.93;99584.37;1722383;83;21318;-81
2023/06/16 09:09:06;;;;;;;16.85;4.85;;;;;;;27.60;47.25;99577.44;1722276;83;21939;-82
2023/06/16 09:12:17;;;;;;;9.88;4.33;;;;;;;27.62;47.84;99596.78;1721482;83;21353;-81
2023/06/16 09:15:22;;;;;;;12.40;4.25;;;;;;;27.58;46.54;99588.73;1722486;83;21298;-81
2023/06/16 09:18:28;;;;;;;10.68;4.00;;;;;;;27.63;46.93;99583.85;1722668;83;21291;-81
2023/06/16 09:21:34;;;;;;;16.73;4.17;;;;;;;27.62;46.79;99577.12;1721646;83;21311;-82
2023/06/16 09:24:41;;;;;;;19.07;4.65;;;;;;;27.66;47.07;99580.41;1721568;83;21287;-83
2023/06/16 09:27:56;;;;;;;13.38;3.83;;;;;;;27.67;47.47;99579.30;1723047;83;21303;-83
2023/06/16 09:31:06;;;;;;;16.62;4.55;;;;;;;27.60;46.75;99571.81;1722278;83;21263;-81
2023/06/16 09:34:14;;;;;;;16.80;3.87;;;;;;;27.69;47.49;99577.00;1722994;83;21323;-82
2023/06/16 09:37:13;;;;;;;11.20;3.60;;;;;;;27.85;47.11;99584.61;1722906;83;21855;-83
2023/06/16 09:40:13;;;;;;;13.28;3.77;;;;;;;27.78;46.17;99578.56;1721769;83;21315;-81
2023/06/16 09:43:21;;;;;;;9.03;3.58;;;;;;;27.99;45.08;99574.23;1721646;83;21863;-81
2023/06/16 09:46:28;;;;;;;13.28;3.87;;;;;;;27.93;44.99;99582.50;1722256;83;21302;-83
2023/06/16 09:49:34;;;;;;;11.10;4.05;;;;;;;27.95;44.58;99577.42;1721491;83;21315;-81
2023/06/16 09:52:41;;;;;;;13.10;3.77;;;;;;;28.11;44.13;99563.91;1723653;83;21275;-83
2023/06/16 09:55:49;;;;;;;12.93;3.70;;;;;;;28.10;44.10;99569.84;1693199;83;21374;-80
2023/06/16 09:58:50;;;;;;;10.18;3.45;;;;;;;27.91;44.27;99576.94;1721827;83;21272;-81
2023/06/16 10:01:58;;;;;;;8.10;3.27;;;;;;;27.72;44.21;99572.78;1769988;81;21304;-82
2023/06/16 10:05:04;;;;;;;11.50;3.83;;;;;;;27.87;43.59;99571.67;1770225;81;21272;-81
2023/06/16 10:08:15;;;;;;;10.53;3.40;;;;;;;27.97;43.61;99578.51;1770166;81;21279;-82
2023/06/16 10:11:22;;;;;;;7.55;3.22;;;;;;;28.12;43.03;99565.56;1769770;81;21351;-83
2023/06/16 10:14:31;;;;;;;10.50;3.40;;;;;;;28.23;42.78;99578.84;1746245;81;21320;-82
2023/06/16 10:17:38;;;;;;;16.32;4.05;;;;;;;28.38;44.13;99569.33;1734842;82;21323;-82
2023/06/16 10:20:45;;;;;;;10.20;3.12;;;;;;;28.56;41.77;99560.49;1733913;82;21303;-81
2023/06/16 10:23:51;;;;;;;12.10;3.85;;;;;;;28.88;42.26;99564.56;1735042;82;21152;-81
2023/06/16 10:26:57;;;;;;;9.85;3.27;;;;;;;28.98;41.48;99562.98;1733856;82;21216;-81
2023/06/16 10:30:06;;;;;;;8.65;2.83;;;;;;;29.03;41.00;99560.63;1709462;82;21325;-82
2023/06/16 10:33:29;;;;;;;14.95;3.25;;;;;;;28.95;41.70;99559.96;1758927;80;21227;-81
2023/06/16 10:36:39;;;;;;;8.23;2.83;;;;;;;28.95;41.70;99559.96;1766956;81;21207;-81
2023/06/16 10:39:51;;;;;;;11.95;3.67;;;;;;;29.16;40.89;99551.28;1767938;81;21291;-81
2023/06/16 10:43:00;;;;;;;14.53;3.87;;;;;;;29.16;40.89;99551.28;1766601;81;21299;-81
2023/06/16 10:46:26;;;;;;;9.50;3.17;;;;;;;29.25;41.56;99555.00;1767273;81;21903;-82
2023/06/16 10:49:34;;;;;;;16.82;3.98;;;;;;;28.99;40.65;99553.38;1767832;81;21291;-82
2023/06/16 10:52:43;;;;;;;11.43;3.77;;;;;;;28.89;41.76;99552.73;1747796;80;21283;-83
2023/06/16 10:55:50;;;;;;;14.33;4.17;;;;;;;28.89;41.76;99552.73;1748164;82;21314;-82
2023/06/16 10:58:59;;;;;;;13.60;3.75;;;;;;;28.89;42.15;99545.69;1748244;82;21271;-80
2023/06/16 11:02:05;;;;;;;19.50;5.08;;;;;;;28.80;42.71;99544.80;1712969;83;21292;-82
2023/06/16 11:05:22;;;;;;;10.32;3.50;;;;;;;28.72;42.97;99541.57;1729167;82;21318;-81
2023/06/16 11:08:28;;;;;;;12.40;3.95;;;;;;;28.76;42.53;99544.02;1726282;82;21825;-81
2023/06/16 11:11:40;;;;;;;11.57;3.58;;;;;;;28.80;42.84;99539.17;1726204;82;21311;-80
2023/06/16 11:14:45;;;;;;;18.00;3.92;;;;;;;28.76;42.96;99531.36;1715095;83;21258;-81
2023/06/16 11:17:54;;;;;;;14.80;3.12;;;;;;;28.73;42.18;99536.77;1694513;83;21281;-81
2023/06/16 11:21:06;;;;;;;11.03;3.25;;;;;;;28.46;42.82;99534.25;1716707;83;21309;-81
2023/06/16 11:24:19;;;;;;;9.50;2.95;;;;;;;28.26;43.72;99537.45;1718114;83;21854;-83
2023/06/16 11:27:25;;;;;;;11.00;3.87;;;;;;;28.05;44.17;99534.23;1726970;83;21265;-82
2023/06/16 11:30:31;;;;;;;16.07;3.62;;;;;;;28.05;43.99;99533.41;1715110;83;21346;-82
2023/06/16 11:33:39;;;;;;;9.23;3.02;;;;;;;27.75;44.28;99528.60;1710594;83;21277;-81
2023/06/16 11:36:45;;;;;;;11.63;3.42;;;;;;;27.74;45.05;99526.37;1712091;83;21277;-84
2023/06/16 11:39:52;;;;;;;7.37;3.75;;;;;;;27.80;44.61;99531.89;1712502;83;21293;-80
2023/06/16 11:43:16;;;;;;;11.45;3.77;;;;;;;27.81;44.92;99523.72;1697707;84;21860;-81
2023/06/16 11:46:29;;;;;;;13.28;4.05;;;;;;;27.96;45.29;99520.64;1712585;83;21887;-83
2023/06/16 11:49:38;;;;;;;11.08;3.55;;;;;;;27.94;44.53;99524.31;1708780;83;21285;-81
2023/06/16 11:52:44;;;;;;;5.75;2.85;;;;;;;28.00;44.26;99521.69;1724274;83;21269;-82
2023/06/16 11:55:59;;;;;;;6.40;3.33;;;;;;;28.15;43.78;99519.97;1718317;83;21313;-81
2023/06/16 11:59:08;;;;;;;19.35;4.78;;;;;;;28.26;43.23;99512.98;1716448;83;21317;-81
2023/06/16 12:02:14;;;;;;;11.83;3.42;;;;;;;28.19;43.78;99505.55;1694421;83;21303;-81
2023/06/16 12:05:48;;;;;;;17.07;4.17;;;;;;;28.37;43.55;99507.17;1720783;83;21327;-80
2023/06/16 12:08:57;;;;;;;15.40;3.60;;;;;;;28.51;43.71;99499.55;1722860;82;21284;-80
2023/06/16 12:12:01;;;;;;;12.20;4.08;;;;;;;28.70;42.72;99498.86;1736005;81;22026;-82
2023/06/16 12:15:09;;;;;;;8.68;3.12;;;;;;;29.02;41.71;99495.59;1711484;82;21252;-80
2023/06/16 12:18:16;;;;;;;9.63;3.50;;;;;;;28.98;42.23;99492.61;1732524;82;21855;-82
2023/06/16 12:21:30;;;;;;;8.90;3.27;;;;;;;29.02;41.97;99485.75;1733446;82;21259;-81
2023/06/16 12:24:37;;;;;;;13.95;3.40;;;;;;;29.03;39.86;99478.98;1731394;82;21268;-80
2023/06/16 12:27:44;;;;;;;10.95;3.00;;;;;;;29.03;39.86;99478.98;1734012;82;21241;-82
2023/06/16 12:30:49;;;;;;;8.38;3.30;;;;;;;29.18;40.52;99477.77;1735046;82;21303;-80
2023/06/16 12:34:02;;;;;;;16.07;3.10;;;;;;;29.26;40.07;99477.81;1737710;82;21718;-81
2023/06/16 12:37:14;;;;;;;9.83;3.05;;;;;;;29.38;40.13;99479.23;1732182;82;21303;-83
2023/06/16 12:40:21;;;;;;;6.97;2.85;;;;;;;29.71;40.15;99469.92;1685099;82;21258;-82
2023/06/16 12:43:35;;;;;;;10.25;3.65;;;;;;;29.64;40.20;99482.22;1715380;83;21319;-81
2023/06/16 12:46:41;;;;;;;21.95;3.20;;;;;;;29.73;39.82;99471.83;1735609;82;21255;-81
2023/06/16 12:49:47;;;;;;;8.78;2.83;;;;;;;29.46;40.52;99466.62;1740430;82;21307;-83
2023/06/16 12:52:53;;;;;;;6.60;2.65;;;;;;;29.35;40.57;99468.59;1739145;82;21359;-81
2023/06/16 12:55:59;;;;;;;7.87;3.17;;;;;;;29.37;40.91;99462.91;1739875;82;21322;-83
2023/06/16 12:59:04;;;;;;;13.70;3.37;;;;;;;29.56;40.74;99458.50;1740026;82;21958;-83
2023/06/16 13:02:10;;;;;;;11.83;3.70;;;;;;;29.84;40.05;99461.95;1738343;82;21320;-81
2023/06/16 13:05:16;;;;;;;14.45;3.10;;;;;;;29.84;40.05;99461.95;1740200;82;21331;-81
2023/06/16 13:08:23;;;;;;;14.45;2.83;;;;;;;29.96;39.40;99469.78;1745866;82;21319;-82
2023/06/16 13:11:29;;;;;;;10.00;3.12;;;;;;;29.85;38.89;99459.97;1750925;82;21394;-82
2023/06/16 13:14:36;;;;;;;9.93;2.85;;;;;;;29.96;39.21;99460.75;1751979;82;21634;-81
2023/06/16 13:17:42;;;;;;;9.58;3.08;;;;;;;30.27;38.92;99463.55;1752074;82;21285;-82
2023/06/16 13:20:48;;;;;;;10.50;2.90;;;;;;;30.57;38.08;99468.58;1752173;82;21348;-82
2023/06/16 13:23:54;;;;;;;10.32;2.92;;;;;;;30.13;38.46;99451.56;1751347;82;21268;-82
2023/06/16 13:27:00;;;;;;;11.43;2.90;;;;;;;30.12;38.63;99458.33;1751517;82;21328;-81
2023/06/16 13:30:07;;;;;;;11.88;2.67;;;;;;;30.07;38.39;99457.66;1752771;82;21849;-82
2023/06/16 13:33:13;;;;;;;12.30;3.17;;;;;;;29.98;38.03;99466.08;1751915;82;21316;-81
2023/06/16 13:36:21;;;;;;;5.70;2.33;;;;;;;30.03;38.44;99458.88;1751992;82;21304;-82
2023/06/16 13:39:27;;;;;;;11.38;2.70;;;;;;;30.04;38.10;99456.31;1752682;82;21281;-81
2023/06/16 13:42:32;;;;;;;11.20;3.40;;;;;;;30.20;37.27;99460.36;1752468;82;21932;-81
2023/06/16 13:45:38;;;;;;;12.30;2.87;;;;;;;30.16;37.01;99465.02;1752395;82;21360;-81
2023/06/16 13:48:45;;;;;;;9.95;4.50;;;;;;;29.94;37.72;99456.61;1752767;82;21300;-83
2023/06/16 13:51:50;;;;;;;18.12;4.65;;;;;;;29.93;37.63;99457.77;1751422;82;21308;-81
2023/06/16 13:54:56;;;;;;;5.60;3.00;;;;;;;29.71;38.01;99452.44;1752637;82;21292;-81
2023/06/16 13:58:01;;;;;;;11.35;3.40;;;;;;;29.71;38.36;99447.39;1751458;82;21237;-81
2023/06/16 14:01:07;;;;;;;6.50;2.50;;;;;;;29.72;37.58;99442.00;1751369;82;21347;-83
2023/06/16 14:04:13;;;;;;;12.55;3.02;;;;;;;30.01;37.79;99443.68;1752851;82;21281;-83
2023/06/16 14:07:19;;;;;;;15.20;3.02;;;;;;;29.99;37.56;99441.78;1752748;82;21814;-81
2023/06/16 14:10:37;;;;;;;6.42;2.60;;;;;;;29.75;38.25;99440.77;1750165;81;21321;-81
2023/06/16 14:13:44;;;;;;;8.78;2.75;;;;;;;29.66;38.98;99443.30;1751942;82;21312;-83
2023/06/16 14:16:51;;;;;;;12.60;3.62;;;;;;;29.70;38.98;99433.88;1751564;82;21339;-83
2023/06/16 14:19:56;;;;;;;10.98;3.60;;;;;;;29.55;38.71;99442.76;1752819;82;21837;-83
2023/06/16 14:23:01;;;;;;;12.18;2.72;;;;;;;29.33;38.45;99435.72;1752387;82;21327;-83
2023/06/16 14:26:08;;;;;;;11.73;2.95;;;;;;;29.21;38.79;99434.30;1751902;82;21304;-84
2023/06/16 14:29:15;;;;;;;9.03;3.60;;;;;;;29.44;39.30;99430.05;1752863;82;21268;-81